sensor_id;sensor_type;location;lat;lon;timestamp;pressure;altitude;pressure_sealevel;temperature;humidity
48402;BME280;65988;52.422;16.746;2023-04-25T00:02:19;98618.44;;;23.15;38.42
48402;BME280;65988;52.422;16.746;2023-04-25T00:04:50;98553.34;;;23.23;37.56
48402;BME280;65988;52.422;16.746;2023-04-25T00:07:35;98541.81;;;23.16;37.71
48402;BME280;65988;52.422;16.746;2023-04-25T00:10:15;98659.63;;;23.24;38.24
48402;BME280;65988;52.422;16.746;2023-04-25T00:12:59;98629.78;;;22.48;38.75
48402;BME280;65988;52.422;16.746;2023-04-25T00:15:36;98568.47;;;22.97;38.04
48402;BME280;65988;52.422;16.746;2023-04-25T00:18:11;98591.00;;;22.75;38.17
48402;BME280;65988;52.422;16.746;2023-04-25T00:20:48;98538.47;;;22.65;38.31
48402;BME280;65988;52.422;16.746;2023-04-25T00:23:27;98441.44;;;21.42;38.77
48402;BME280;65988;52.422;16.746;2023-04-25T00:26:00;98547.25;;;22.31;38.50
48402;BME280;65988;52.422;16.746;2023-04-25T00:28:26;98490.88;;;22.75;37.67
48402;BME280;65988;52.422;16.746;2023-04-25T00:31:16;98627.84;;;23.42;37.43
48402;BME280;65988;52.422;16.746;2023-04-25T00:33:53;98550.75;;;21.97;38.69
48402;BME280;65988;52.422;16.746;2023-04-25T00:36:19;98417.44;;;22.22;38.25
48402;BME280;65988;52.422;16.746;2023-04-25T00:38:50;98481.38;;;21.63;38.33
48402;BME280;65988;52.422;16.746;2023-04-25T00:41:18;98671.94;;;22.99;37.87
48402;BME280;65988;52.422;16.746;2023-04-25T00:43:54;98639.63;;;23.05;37.62
48402;BME280;65988;52.422;16.746;2023-04-25T00:46:28;98433.53;;;22.27;37.57
48402;BME280;65988;52.422;16.746;2023-04-25T00:48:54;98411.88;;;22.42;37.79
48402;BME280;65988;52.422;16.746;2023-04-25T00:51:28;98636.34;;;22.95;37.57
48402;BME280;65988;52.422;16.746;2023-04-25T00:54:03;98351.66;;;21.63;38.05
48402;BME280;65988;52.422;16.746;2023-04-25T00:56:31;98699.03;;;23.26;37.55
48402;BME280;65988;52.422;16.746;2023-04-25T00:59:05;98646.09;;;23.68;36.63
48402;BME280;65988;52.422;16.746;2023-04-25T01:01:40;98470.16;;;23.04;36.74
48402;BME280;65988;52.422;16.746;2023-04-25T01:06:58;98649.94;;;23.49;37.30
48402;BME280;65988;52.422;16.746;2023-04-25T01:09:27;98719.94;;;24.34;36.51
48402;BME280;65988;52.422;16.746;2023-04-25T01:12:00;98677.63;;;24.51;35.82
48402;BME280;65988;52.422;16.746;2023-04-25T01:14:26;98413.78;;;23.22;36.54
48402;BME280;65988;52.422;16.746;2023-04-25T01:17:00;98646.31;;;23.34;37.32
48402;BME280;65988;52.422;16.746;2023-04-25T01:22:15;98524.00;;;23.02;37.11
48402;BME280;65988;52.422;16.746;2023-04-25T01:24:43;98571.47;;;23.27;37.16
48402;BME280;65988;52.422;16.746;2023-04-25T01:27:19;98592.09;;;23.31;37.00
48402;BME280;65988;52.422;16.746;2023-04-25T01:29:51;98681.91;;;23.30;38.03
48402;BME280;65988;52.422;16.746;2023-04-25T01:32:23;98619.03;;;23.99;36.33
48402;BME280;65988;52.422;16.746;2023-04-25T01:34:54;98427.38;;;22.69;37.04
48402;BME280;65988;52.422;16.746;2023-04-25T01:37:20;98366.78;;;22.53;37.21
48402;BME280;65988;52.422;16.746;2023-04-25T01:39:51;98674.31;;;23.76;36.98
48402;BME280;65988;52.422;16.746;2023-04-25T01:42:21;98337.94;;;22.02;38.00
48402;BME280;65988;52.422;16.746;2023-04-25T01:44:50;98414.22;;;21.85;38.48
48402;BME280;65988;52.422;16.746;2023-04-25T01:47:21;98779.28;;;23.31;38.22
48402;BME280;65988;52.422;16.746;2023-04-25T01:50:09;98571.72;;;22.66;38.12
48402;BME280;65988;52.422;16.746;2023-04-25T01:52:37;98490.94;;;21.73;38.74
48402;BME280;65988;52.422;16.746;2023-04-25T01:55:10;98662.88;;;22.50;38.64
48402;BME280;65988;52.422;16.746;2023-04-25T02:00:49;98474.25;;;21.90;39.00
48402;BME280;65988;52.422;16.746;2023-04-25T02:03:17;98695.13;;;22.44;38.94
48402;BME280;65988;52.422;16.746;2023-04-25T02:05:46;98387.69;;;21.36;39.19
48402;BME280;65988;52.422;16.746;2023-04-25T02:08:11;98328.34;;;21.17;39.20
48402;BME280;65988;52.422;16.746;2023-04-25T02:10:39;98613.22;;;21.50;39.58
48402;BME280;65988;52.422;16.746;2023-04-25T02:13:21;98709.88;;;22.71;38.55
48402;BME280;65988;52.422;16.746;2023-04-25T02:15:56;98701.53;;;22.93;38.13
48402;BME280;65988;52.422;16.746;2023-04-25T02:18:22;98386.28;;;21.93;38.34
48402;BME280;65988;52.422;16.746;2023-04-25T02:20:53;98645.78;;;23.22;37.60
48402;BME280;65988;52.422;16.746;2023-04-25T02:23:27;98379.19;;;21.42;38.52
48402;BME280;65988;52.422;16.746;2023-04-25T02:26:09;98427.34;;;21.77;38.70
48402;BME280;65988;52.422;16.746;2023-04-25T02:28:56;98566.97;;;21.40;39.81
48402;BME280;65988;52.422;16.746;2023-04-25T02:31:40;98600.94;;;21.77;39.37
48402;BME280;65988;52.422;16.746;2023-04-25T02:34:11;98378.25;;;20.28;39.95
48402;BME280;65988;52.422;16.746;2023-04-25T02:39:38;98713.84;;;22.41;38.91
48402;BME280;65988;52.422;16.746;2023-04-25T02:42:07;98636.97;;;22.11;38.96
48402;BME280;65988;52.422;16.746;2023-04-25T02:44:38;98329.31;;;21.16;38.92
48402;BME280;65988;52.422;16.746;2023-04-25T02:47:04;98353.28;;;20.87;39.28
48402;BME280;65988;52.422;16.746;2023-04-25T02:49:43;98742.56;;;22.08;39.36
48402;BME280;65988;52.422;16.746;2023-04-25T02:52:09;98419.38;;;20.74;40.02
48402;BME280;65988;52.422;16.746;2023-04-25T02:54:41;98720.72;;;22.16;39.50
48402;BME280;65988;52.422;16.746;2023-04-25T02:57:22;98725.31;;;22.66;38.68
48402;BME280;65988;52.422;16.746;2023-04-25T03:00:08;98579.28;;;21.57;39.44
48402;BME280;65988;52.422;16.746;2023-04-25T03:02:37;98347.22;;;20.24;39.60
48402;BME280;65988;52.422;16.746;2023-04-25T03:05:05;98621.53;;;21.01;40.40
48402;BME280;65988;52.422;16.746;2023-04-25T03:10:36;98620.81;;;22.06;38.64
48402;BME280;65988;52.422;16.746;2023-04-25T03:13:07;98710.47;;;22.57;38.55
48402;BME280;65988;52.422;16.746;2023-04-25T03:15:37;98608.63;;;21.70;39.38
48402;BME280;65988;52.422;16.746;2023-04-25T03:18:44;98659.78;;;22.29;39.19
48402;BME280;65988;52.422;16.746;2023-04-25T03:21:19;98453.34;;;21.88;38.59
48402;BME280;65988;52.422;16.746;2023-04-25T03:23:47;98703.53;;;22.90;38.67
48402;BME280;65988;52.422;16.746;2023-04-25T03:26:22;98647.28;;;22.65;38.32
48402;BME280;65988;52.422;16.746;2023-04-25T03:28:48;98376.44;;;22.11;38.01
48402;BME280;65988;52.422;16.746;2023-04-25T03:31:30;98590.03;;;21.98;38.90
48402;BME280;65988;52.422;16.746;2023-04-25T03:33:58;98333.16;;;20.69;39.67
48402;BME280;65988;52.422;16.746;2023-04-25T03:36:42;98440.09;;;21.64;39.09
48402;BME280;65988;52.422;16.746;2023-04-25T03:39:15;98677.88;;;21.79;39.90
48402;BME280;65988;52.422;16.746;2023-04-25T03:41:54;98696.09;;;22.43;38.82
48402;BME280;65988;52.422;16.746;2023-04-25T03:44:46;98678.63;;;22.42;38.66
48402;BME280;65988;52.422;16.746;2023-04-25T03:47:14;98307.06;;;20.05;40.10
48402;BME280;65988;52.422;16.746;2023-04-25T03:50:08;98652.06;;;22.01;39.30
48402;BME280;65988;52.422;16.746;2023-04-25T03:52:39;98786.44;;;21.63;40.59
48402;BME280;65988;52.422;16.746;2023-04-25T03:55:07;98602.19;;;21.47;39.39
48402;BME280;65988;52.422;16.746;2023-04-25T03:57:38;98730.31;;;22.43;39.55
48402;BME280;65988;52.422;16.746;2023-04-25T04:03:18;98737.31;;;22.08;40.22
48402;BME280;65988;52.422;16.746;2023-04-25T04:06:16;98698.63;;;21.82;39.98
48402;BME280;65988;52.422;16.746;2023-04-25T04:09:06;98748.91;;;21.97;39.81
48402;BME280;65988;52.422;16.746;2023-04-25T04:11:41;98511.97;;;21.20;40.27
48402;BME280;65988;52.422;16.746;2023-04-25T04:14:07;98608.78;;;20.61;41.14
48402;BME280;65988;52.422;16.746;2023-04-25T04:16:46;98748.56;;;21.56;40.44
48402;BME280;65988;52.422;16.746;2023-04-25T04:19:22;98599.03;;;21.61;39.94
48402;BME280;65988;52.422;16.746;2023-04-25T04:22:24;98695.81;;;22.54;39.03
48402;BME280;65988;52.422;16.746;2023-04-25T04:24:55;98467.81;;;21.84;38.84
48402;BME280;65988;52.422;16.746;2023-04-25T04:27:47;98530.13;;;21.84;39.08
48402;BME280;65988;52.422;16.746;2023-04-25T04:30:56;98659.78;;;21.76;39.69
48402;BME280;65988;52.422;16.746;2023-04-25T04:33:24;98829.84;;;22.92;38.88
48402;BME280;65988;52.422;16.746;2023-04-25T04:36:06;98653.19;;;21.98;39.04
48402;BME280;65988;52.422;16.746;2023-04-25T04:41:27;98755.81;;;22.43;39.39
48402;BME280;65988;52.422;16.746;2023-04-25T04:44:18;98772.56;;;22.60;39.35
48402;BME280;65988;52.422;16.746;2023-04-25T04:47:08;98869.00;;;23.56;38.42
48402;BME280;65988;52.422;16.746;2023-04-25T04:50:01;98719.75;;;23.12;38.06
48402;BME280;65988;52.422;16.746;2023-04-25T04:55:57;98584.03;;;22.14;39.04
48402;BME280;65988;52.422;16.746;2023-04-25T04:58:28;98804.00;;;23.30;38.38
48402;BME280;65988;52.422;16.746;2023-04-25T05:01:22;98726.88;;;23.45;37.95
48402;BME280;65988;52.422;16.746;2023-04-25T05:03:51;98609.13;;;22.78;38.44
48402;BME280;65988;52.422;16.746;2023-04-25T05:06:56;98848.03;;;23.97;37.82
48402;BME280;65988;52.422;16.746;2023-04-25T05:09:50;98750.47;;;23.54;37.95
48402;BME280;65988;52.422;16.746;2023-04-25T05:12:15;98455.09;;;22.22;38.93
48402;BME280;65988;52.422;16.746;2023-04-25T05:14:43;98552.84;;;22.28;38.55
48402;BME280;65988;52.422;16.746;2023-04-25T05:17:14;98806.91;;;22.84;39.21
48402;BME280;65988;52.422;16.746;2023-04-25T05:19:45;98742.22;;;23.33;38.12
48402;BME280;65988;52.422;16.746;2023-04-25T05:22:16;98924.75;;;23.96;38.24
48402;BME280;65988;52.422;16.746;2023-04-25T05:24:41;98428.25;;;22.02;38.28
48402;BME280;65988;52.422;16.746;2023-04-25T05:27:10;98733.63;;;23.22;37.95
48402;BME280;65988;52.422;16.746;2023-04-25T05:29:38;98433.94;;;22.49;38.36
48402;BME280;65988;52.422;16.746;2023-04-25T05:32:16;98700.88;;;22.48;38.89
48402;BME280;65988;52.422;16.746;2023-04-25T05:35:08;98831.81;;;23.84;38.01
48402;BME280;65988;52.422;16.746;2023-04-25T05:37:33;98420.81;;;21.98;38.58
48402;BME280;65988;52.422;16.746;2023-04-25T05:40:05;98771.94;;;23.84;37.40
48402;BME280;65988;52.422;16.746;2023-04-25T05:42:32;98542.97;;;22.97;38.26
48402;BME280;65988;52.422;16.746;2023-04-25T05:45:05;98432.47;;;22.63;37.50
48402;BME280;65988;52.422;16.746;2023-04-25T05:47:31;98539.50;;;23.38;37.42
48402;BME280;65988;52.422;16.746;2023-04-25T05:49:59;98709.28;;;24.03;37.21
48402;BME280;65988;52.422;16.746;2023-04-25T05:52:24;98506.91;;;23.22;37.35
48402;BME280;65988;52.422;16.746;2023-04-25T05:54:52;98772.97;;;24.00;37.43
48402;BME280;65988;52.422;16.746;2023-04-25T05:57:25;98681.25;;;22.77;38.04
48402;BME280;65988;52.422;16.746;2023-04-25T05:59:53;98849.53;;;24.00;37.45
48402;BME280;65988;52.422;16.746;2023-04-25T06:02:22;98801.34;;;24.06;37.38
48402;BME280;65988;52.422;16.746;2023-04-25T06:05:02;98829.22;;;24.17;37.13
48402;BME280;65988;52.422;16.746;2023-04-25T06:07:28;98620.56;;;23.77;36.50
48402;BME280;65988;52.422;16.746;2023-04-25T06:09:59;98556.13;;;22.97;37.02
48402;BME280;65988;52.422;16.746;2023-04-25T06:12:28;98847.53;;;24.68;36.61
48402;BME280;65988;52.422;16.746;2023-04-25T06:14:53;98538.56;;;24.58;36.08
48402;BME280;65988;52.422;16.746;2023-04-25T06:17:22;98753.94;;;25.02;36.03
48402;BME280;65988;52.422;16.746;2023-04-25T06:19:50;98627.50;;;24.34;36.36
48402;BME280;65988;52.422;16.746;2023-04-25T06:22:19;98750.16;;;24.32;36.91
48402;BME280;65988;52.422;16.746;2023-04-25T06:24:46;98539.78;;;23.68;36.52
48402;BME280;65988;52.422;16.746;2023-04-25T06:27:27;98882.75;;;25.33;36.25
48402;BME280;65988;52.422;16.746;2023-04-25T06:29:58;98469.78;;;23.97;35.89
48402;BME280;65988;52.422;16.746;2023-04-25T06:32:32;98687.53;;;24.57;36.08
48402;BME280;65988;52.422;16.746;2023-04-25T06:34:59;98488.09;;;22.76;37.09
48402;BME280;65988;52.422;16.746;2023-04-25T06:37:25;98704.72;;;24.53;36.45
48402;BME280;65988;52.422;16.746;2023-04-25T06:39:59;98585.00;;;24.21;35.97
48402;BME280;65988;52.422;16.746;2023-04-25T06:42:27;98559.81;;;24.96;35.74
48402;BME280;65988;52.422;16.746;2023-04-25T06:44:58;98884.28;;;26.13;35.29
48402;BME280;65988;52.422;16.746;2023-04-25T06:47:37;98857.06;;;27.10;34.07
48402;BME280;65988;52.422;16.746;2023-04-25T06:50:13;98766.19;;;27.02;33.89
48402;BME280;65988;52.422;16.746;2023-04-25T06:52:38;98434.03;;;24.64;34.91
48402;BME280;65988;52.422;16.746;2023-04-25T06:55:21;98610.63;;;25.30;34.87
48402;BME280;65988;52.422;16.746;2023-04-25T06:57:55;98434.44;;;24.52;34.98
48402;BME280;65988;52.422;16.746;2023-04-25T07:00:23;98798.00;;;24.62;37.08
48402;BME280;65988;52.422;16.746;2023-04-25T07:12:10;98798.28;;;26.77;34.16
48402;BME280;65988;52.422;16.746;2023-04-25T07:27:10;98746.00;;;26.56;33.71
48402;BME280;65988;52.422;16.746;2023-04-25T07:33:06;98671.03;;;25.49;34.43
48402;BME280;65988;52.422;16.746;2023-04-25T07:36:18;98718.94;;;26.60;33.51
48402;BME280;65988;52.422;16.746;2023-04-25T08:18:59;98776.78;;;29.36;31.15
48402;BME280;65988;52.422;16.746;2023-04-25T08:25:27;98720.00;;;30.77;29.78
48402;BME280;65988;52.422;16.746;2023-04-25T08:28:13;98661.47;;;29.16;30.97
48402;BME280;65988;52.422;16.746;2023-04-25T08:30:54;98681.09;;;28.95;31.02
48402;BME280;65988;52.422;16.746;2023-04-25T08:33:42;98412.72;;;27.43;31.66
48402;BME280;65988;52.422;16.746;2023-04-25T08:36:17;98512.53;;;28.21;31.82
48402;BME280;65988;52.422;16.746;2023-04-25T08:38:45;98552.16;;;27.80;31.45
48402;BME280;65988;52.422;16.746;2023-04-25T08:41:24;98582.50;;;27.99;31.38
48402;BME280;65988;52.422;16.746;2023-04-25T08:43:53;98900.50;;;30.09;31.42
48402;BME280;65988;52.422;16.746;2023-04-25T08:46:21;98623.31;;;28.68;31.05
48402;BME280;65988;52.422;16.746;2023-04-25T08:48:47;98383.03;;;27.74;30.97
48402;BME280;65988;52.422;16.746;2023-04-25T08:51:22;98765.16;;;28.89;31.94
48402;BME280;65988;52.422;16.746;2023-04-25T08:53:51;98905.69;;;30.44;30.94
48402;BME280;65988;52.422;16.746;2023-04-25T08:56:17;98779.22;;;28.83;31.67
48402;BME280;65988;52.422;16.746;2023-04-25T08:58:43;98855.78;;;29.91;31.17
48402;BME280;65988;52.422;16.746;2023-04-25T09:01:23;98735.50;;;30.01;30.95
48402;BME280;65988;52.422;16.746;2023-04-25T09:07:29;98585.78;;;29.25;30.39
48402;BME280;65988;52.422;16.746;2023-04-25T09:09:55;98489.63;;;28.13;31.10
48402;BME280;65988;52.422;16.746;2023-04-25T09:12:29;98838.47;;;29.47;31.90
48402;BME280;65988;52.422;16.746;2023-04-25T09:15:12;98813.41;;;30.10;30.99
48402;BME280;65988;52.422;16.746;2023-04-25T09:18:18;98861.91;;;31.05;29.95
48402;BME280;65988;52.422;16.746;2023-04-25T09:20:54;98502.63;;;27.31;31.34
48402;BME280;65988;52.422;16.746;2023-04-25T09:23:27;98731.59;;;28.53;31.77
48402;BME280;65988;52.422;16.746;2023-04-25T09:29:10;98671.97;;;29.44;30.49
48402;BME280;65988;52.422;16.746;2023-04-25T09:32:28;98669.22;;;29.04;30.70
48402;BME280;65988;52.422;16.746;2023-04-25T09:44:46;98793.81;;;32.05;29.04
48402;BME280;65988;52.422;16.746;2023-04-25T09:47:23;98722.69;;;30.70;30.08
48402;BME280;65988;52.422;16.746;2023-04-25T09:49:52;98527.22;;;29.25;29.99
48402;BME280;65988;52.422;16.746;2023-04-25T09:52:33;98672.59;;;29.73;30.17
48402;BME280;65988;52.422;16.746;2023-04-25T09:55:01;98458.44;;;29.22;29.81
48402;BME280;65988;52.422;16.746;2023-04-25T09:57:32;98720.91;;;29.50;30.87
48402;BME280;65988;52.422;16.746;2023-04-25T09:59:58;98697.16;;;29.42;30.59
48402;BME280;65988;52.422;16.746;2023-04-25T10:02:33;98739.63;;;29.90;30.27
48402;BME280;65988;52.422;16.746;2023-04-25T10:05:12;98772.59;;;29.89;30.63
48402;BME280;65988;52.422;16.746;2023-04-25T10:07:44;98545.44;;;28.20;31.08
48402;BME280;65988;52.422;16.746;2023-04-25T10:10:12;98722.47;;;29.17;30.92
48402;BME280;65988;52.422;16.746;2023-04-25T10:12:56;98661.25;;;28.49;31.78
48402;BME280;65988;52.422;16.746;2023-04-25T10:15:27;98603.16;;;28.39;31.26
48402;BME280;65988;52.422;16.746;2023-04-25T10:17:58;98497.53;;;27.58;30.79
48402;BME280;65988;52.422;16.746;2023-04-25T10:20:51;98722.19;;;28.92;31.22
48402;BME280;65988;52.422;16.746;2023-04-25T10:23:16;98546.31;;;27.07;31.81
48402;BME280;65988;52.422;16.746;2023-04-25T10:25:46;98518.91;;;27.21;31.60
48402;BME280;65988;52.422;16.746;2023-04-25T10:28:13;98480.25;;;27.12;31.42
48402;BME280;65988;52.422;16.746;2023-04-25T10:31:03;98690.66;;;27.84;31.73
48402;BME280;65988;52.422;16.746;2023-04-25T10:33:39;98637.63;;;27.19;32.49
48402;BME280;65988;52.422;16.746;2023-04-25T10:36:18;98698.72;;;26.89;32.79
48402;BME280;65988;52.422;16.746;2023-04-25T10:38:45;98668.56;;;26.45;32.79
48402;BME280;65988;52.422;16.746;2023-04-25T10:41:14;98645.25;;;26.71;32.50
48402;BME280;65988;52.422;16.746;2023-04-25T10:43:41;98586.31;;;26.69;32.49
48402;BME280;65988;52.422;16.746;2023-04-25T10:46:37;98585.03;;;26.79;32.39
48402;BME280;65988;52.422;16.746;2023-04-25T10:49:11;98666.34;;;27.15;32.02
48402;BME280;65988;52.422;16.746;2023-04-25T10:52:11;98739.59;;;29.01;30.89
48402;BME280;65988;52.422;16.746;2023-04-25T10:54:57;98983.66;;;31.07;30.47
48402;BME280;65988;52.422;16.746;2023-04-25T10:57:39;98898.91;;;31.99;29.49
48402;BME280;65988;52.422;16.746;2023-04-25T11:03:46;98624.00;;;30.70;29.10
48402;BME280;65988;52.422;16.746;2023-04-25T11:13:38;98507.16;;;29.49;28.95
48402;BME280;65988;52.422;16.746;2023-04-25T11:16:07;98648.31;;;28.94;30.11
48402;BME280;65988;52.422;16.746;2023-04-25T11:18:35;98528.66;;;29.01;29.72
48402;BME280;65988;52.422;16.746;2023-04-25T11:21:03;98600.56;;;27.76;31.78
48402;BME280;65988;52.422;16.746;2023-04-25T11:23:31;98498.50;;;26.57;31.81
48402;BME280;65988;52.422;16.746;2023-04-25T11:26:03;98553.38;;;26.41;32.15
48402;BME280;65988;52.422;16.746;2023-04-25T11:28:37;98480.84;;;26.06;32.76
48402;BME280;65988;52.422;16.746;2023-04-25T11:31:04;98515.75;;;25.50;33.19
48402;BME280;65988;52.422;16.746;2023-04-25T11:33:37;98618.69;;;25.89;33.30
48402;BME280;65988;52.422;16.746;2023-04-25T11:38:53;98662.13;;;27.21;32.44
48402;BME280;65988;52.422;16.746;2023-04-25T11:41:28;98598.94;;;25.01;34.40
48402;BME280;65988;52.422;16.746;2023-04-25T11:44:05;98740.56;;;25.58;34.82
48402;BME280;65988;52.422;16.746;2023-04-25T11:46:34;98601.28;;;24.96;34.63
48402;BME280;65988;52.422;16.746;2023-04-25T11:49:00;98492.66;;;24.36;35.30
48402;BME280;65988;52.422;16.746;2023-04-25T11:51:25;98570.88;;;24.37;35.64
48402;BME280;65988;52.422;16.746;2023-04-25T11:56:45;98730.50;;;25.53;35.24
48402;BME280;65988;52.422;16.746;2023-04-25T11:59:20;98579.75;;;24.04;35.97
48402;BME280;65988;52.422;16.746;2023-04-25T12:01:49;98844.28;;;26.08;35.10
48402;BME280;65988;52.422;16.746;2023-04-25T12:04:29;98777.78;;;26.41;34.49
48402;BME280;65988;52.422;16.746;2023-04-25T12:07:15;98793.66;;;27.67;33.09
48402;BME280;65988;52.422;16.746;2023-04-25T12:09:54;98795.94;;;26.44;33.88
48402;BME280;65988;52.422;16.746;2023-04-25T12:12:35;98828.34;;;27.44;33.25
48402;BME280;65988;52.422;16.746;2023-04-25T12:15:13;98857.56;;;28.52;32.08
48402;BME280;65988;52.422;16.746;2023-04-25T12:17:53;98664.06;;;26.91;32.94
48402;BME280;65988;52.422;16.746;2023-04-25T12:27:21;98794.31;;;27.18;33.39
48402;BME280;65988;52.422;16.746;2023-04-25T12:30:07;98801.72;;;27.37;33.43
48402;BME280;65988;52.422;16.746;2023-04-25T12:32:40;98646.75;;;25.99;34.46
48402;BME280;65988;52.422;16.746;2023-04-25T12:37:58;98757.38;;;27.16;33.21
48402;BME280;65988;52.422;16.746;2023-04-25T12:44:10;98923.94;;;29.65;31.19
48402;BME280;65988;52.422;16.746;2023-04-25T12:49:59;98790.44;;;29.89;30.35
48402;BME280;65988;52.422;16.746;2023-04-25T12:52:56;98818.91;;;30.28;30.11
48402;BME280;65988;52.422;16.746;2023-04-25T12:55:38;98813.19;;;30.51;30.15
48402;BME280;65988;52.422;16.746;2023-04-25T12:58:22;98392.16;;;25.80;32.64
48402;BME280;65988;52.422;16.746;2023-04-25T13:15:01;99054.03;;;27.27;36.31
48402;BME280;65988;52.422;16.746;2023-04-25T13:18:00;99048.13;;;27.85;35.93
48402;BME280;65988;52.422;16.746;2023-04-25T13:24:23;99033.03;;;27.56;35.79
48402;BME280;65988;52.422;16.746;2023-04-25T13:49:29;99202.00;;;29.78;34.87
48402;BME280;65988;52.422;16.746;2023-04-25T13:52:20;98972.25;;;28.49;34.45
48402;BME280;65988;52.422;16.746;2023-04-25T13:58:39;99057.41;;;29.84;33.62
48402;BME280;65988;52.422;16.746;2023-04-25T14:20:39;98789.25;;;26.71;34.91
48402;BME280;65988;52.422;16.746;2023-04-25T14:23:05;98553.50;;;25.20;35.36
48402;BME280;65988;52.422;16.746;2023-04-25T14:25:56;98923.94;;;26.68;35.69
48402;BME280;65988;52.422;16.746;2023-04-25T14:32:07;99138.91;;;29.78;33.94
48402;BME280;65988;52.422;16.746;2023-04-25T14:38:00;98958.09;;;30.03;32.03
48402;BME280;65988;52.422;16.746;2023-04-25T14:40:47;98698.44;;;27.86;32.05
48402;BME280;65988;52.422;16.746;2023-04-25T14:43:33;98558.31;;;27.03;32.52
48402;BME280;65988;52.422;16.746;2023-04-25T14:46:19;98746.88;;;26.93;33.52
48402;BME280;65988;52.422;16.746;2023-04-25T14:49:02;98871.97;;;28.14;32.56
48402;BME280;65988;52.422;16.746;2023-04-25T14:51:33;98706.31;;;27.14;32.22
48402;BME280;65988;52.422;16.746;2023-04-25T14:54:43;98770.09;;;27.79;31.91
48402;BME280;65988;52.422;16.746;2023-04-25T14:57:22;98666.19;;;27.39;32.11
48402;BME280;65988;52.422;16.746;2023-04-25T15:00:24;98845.19;;;28.38;31.98
48402;BME280;65988;52.422;16.746;2023-04-25T15:03:37;98832.16;;;27.26;33.09
48402;BME280;65988;52.422;16.746;2023-04-25T15:06:45;98883.53;;;28.28;32.06
48402;BME280;65988;52.422;16.746;2023-04-25T15:15:44;98729.09;;;25.42;34.53
48402;BME280;65988;52.422;16.746;2023-04-25T15:18:25;98831.69;;;26.48;33.85
48402;BME280;65988;52.422;16.746;2023-04-25T15:21:03;98784.84;;;25.87;34.46
48402;BME280;65988;52.422;16.746;2023-04-25T15:24:11;98768.75;;;26.80;32.81
48402;BME280;65988;52.422;16.746;2023-04-25T15:27:04;98840.13;;;27.26;32.78
48402;BME280;65988;52.422;16.746;2023-04-25T15:29:43;98894.88;;;27.42;33.34
48402;BME280;65988;52.422;16.746;2023-04-25T15:39:11;98763.34;;;25.36;34.31
48402;BME280;65988;52.422;16.746;2023-04-25T15:41:40;98856.53;;;26.01;34.32
48402;BME280;65988;52.422;16.746;2023-04-25T15:44:12;98525.00;;;24.38;34.27
48402;BME280;65988;52.422;16.746;2023-04-25T15:46:40;98754.19;;;25.15;34.15
48402;BME280;65988;52.422;16.746;2023-04-25T15:49:06;98642.50;;;24.42;34.15
48402;BME280;65988;52.422;16.746;2023-04-25T15:51:43;98640.06;;;25.03;33.09
48402;BME280;65988;52.422;16.746;2023-04-25T15:54:14;98625.56;;;24.68;33.68
48402;BME280;65988;52.422;16.746;2023-04-25T15:56:42;98561.22;;;24.60;33.66
48402;BME280;65988;52.422;16.746;2023-04-25T15:59:13;98487.16;;;24.46;33.35
48402;BME280;65988;52.422;16.746;2023-04-25T16:01:48;98718.06;;;25.31;33.32
48402;BME280;65988;52.422;16.746;2023-04-25T16:04:16;98658.25;;;25.53;32.72
48402;BME280;65988;52.422;16.746;2023-04-25T16:06:49;98538.13;;;24.77;32.64
48402;BME280;65988;52.422;16.746;2023-04-25T16:09:58;98816.44;;;26.50;32.20
48402;BME280;65988;52.422;16.746;2023-04-25T16:12:35;98821.91;;;26.63;32.22
48402;BME280;65988;52.422;16.746;2023-04-25T16:15:17;98803.22;;;26.27;33.07
48402;BME280;65988;52.422;16.746;2023-04-25T16:17:58;98806.91;;;26.41;32.72
48402;BME280;65988;52.422;16.746;2023-04-25T16:20:43;98801.81;;;26.16;32.86
48402;BME280;65988;52.422;16.746;2023-04-25T16:23:14;98688.94;;;25.77;32.69
48402;BME280;65988;52.422;16.746;2023-04-25T16:25:44;98512.75;;;24.91;32.69
48402;BME280;65988;52.422;16.746;2023-04-25T16:28:24;98754.34;;;26.15;32.11
48402;BME280;65988;52.422;16.746;2023-04-25T16:30:52;98645.88;;;25.68;32.58
48402;BME280;65988;52.422;16.746;2023-04-25T16:33:25;98579.47;;;25.40;31.77
48402;BME280;65988;52.422;16.746;2023-04-25T16:36:07;98637.97;;;25.83;31.41
48402;BME280;65988;52.422;16.746;2023-04-25T16:38:33;98431.28;;;24.11;31.95
48402;BME280;65988;52.422;16.746;2023-04-25T16:40:59;98397.69;;;24.42;31.82
48402;BME280;65988;52.422;16.746;2023-04-25T16:43:44;98619.53;;;25.52;31.16
48402;BME280;65988;52.422;16.746;2023-04-25T16:46:15;98494.53;;;24.50;31.41
48402;BME280;65988;52.422;16.746;2023-04-25T16:48:48;98711.38;;;25.20;31.93
48402;BME280;65988;52.422;16.746;2023-04-25T16:51:19;98678.44;;;25.22;31.38
48402;BME280;65988;52.422;16.746;2023-04-25T16:53:45;98400.59;;;23.30;32.72
48402;BME280;65988;52.422;16.746;2023-04-25T16:56:24;98682.28;;;24.49;32.34
48402;BME280;65988;52.422;16.746;2023-04-25T16:58:53;98535.38;;;23.52;32.82
48402;BME280;65988;52.422;16.746;2023-04-25T17:04:08;98611.28;;;23.98;32.81
48402;BME280;65988;52.422;16.746;2023-04-25T17:06:39;98596.13;;;24.00;32.50
48402;BME280;65988;52.422;16.746;2023-04-25T17:09:11;98739.84;;;25.09;32.16
48402;BME280;65988;52.422;16.746;2023-04-25T17:12:10;98761.44;;;25.53;31.59
48402;BME280;65988;52.422;16.746;2023-04-25T17:14:59;98719.06;;;25.30;31.55
48402;BME280;65988;52.422;16.746;2023-04-25T17:17:41;98695.50;;;24.88;31.95
48402;BME280;65988;52.422;16.746;2023-04-25T17:20:31;98710.25;;;25.14;31.54
48402;BME280;65988;52.422;16.746;2023-04-25T17:23:29;98505.00;;;24.12;31.74
48402;BME280;65988;52.422;16.746;2023-04-25T17:26:32;98679.31;;;24.43;31.84